Time;durP1;ratioP1;P1;durP2;ratioP2;P2;SDS_P1;SDS_P2;PMS_P1;PMS_P2;Temp;Humidity;BMP_temperature;BMP_pressure;BME280_temperature;BME280_humidity;BME280_pressure;Samples;Min_cycle;Max_cycle;Signal;HPM_P1;HPM_P2
2022/09/20 00:01:07;;;;;;;1.30;1.13;;;;;;;11.62;77.65;96012.38;5014280;28;20218;-87
2022/09/20 00:03:35;;;;;;;3.63;1.30;;;;;;;11.48;78.41;96002.81;5008847;28;20210;-87
2022/09/20 00:06:06;;;;;;;2.60;1.23;;;;;;;11.36;79.46;96001.56;4994549;28;20236;-86
2022/09/20 00:08:33;;;;;;;1.63;1.20;;;;;;;11.22;80.52;95997.16;4995137;28;20199;-86
2022/09/20 00:11:01;;;;;;;1.60;1.10;;;;;;;11.23;80.33;95989.25;4995272;28;20227;-86
2022/09/20 00:13:29;;;;;;;1.70;0.93;;;;;;;11.30;80.16;95994.56;4995393;28;20261;-86
2022/09/20 00:15:56;;;;;;;1.37;1.20;;;;;;;11.37;79.95;95996.25;4994518;28;20234;-87
2022/09/20 00:18:23;;;;;;;3.47;1.30;;;;;;;11.31;80.43;95996.97;4994758;28;20211;-89
2022/09/20 00:20:50;;;;;;;1.60;1.03;;;;;;;11.41;79.64;95997.53;4994588;28;20666;-87
2022/09/20 00:23:18;;;;;;;1.53;1.30;;;;;;;11.44;79.48;95991.22;5006054;28;20206;-87
2022/09/20 00:25:45;;;;;;;2.07;1.20;;;;;;;11.47;79.59;95993.47;5013808;28;20250;-86
2022/09/20 00:28:13;;;;;;;2.00;1.13;;;;;;;11.50;80.23;95987.16;5014038;28;20213;-86
2022/09/20 00:30:39;;;;;;;2.00;1.00;;;;;;;11.53;80.29;95989.41;5013438;28;20719;-87
2022/09/20 00:33:05;;;;;;;1.70;0.97;;;;;;;11.55;79.63;95987.44;5013579;28;20230;-88
2022/09/20 00:35:31;;;;;;;1.27;1.17;;;;;;;11.48;80.26;95987.34;5013406;28;20234;-87
2022/09/20 00:37:58;;;;;;;1.30;1.10;;;;;;;11.46;80.26;95989.28;5013929;28;20202;-87
2022/09/20 00:40:25;;;;;;;1.60;1.33;;;;;;;11.43;80.44;95987.84;5013447;28;20227;-88
2022/09/20 00:42:52;;;;;;;3.10;1.13;;;;;;;11.48;80.50;95991.69;5013530;28;20230;-87
2022/09/20 00:45:22;;;;;;;1.23;1.10;;;;;;;11.46;80.62;95989.28;5013245;28;20288;-88
2022/09/20 00:47:53;;;;;;;3.40;1.10;;;;;;;11.45;80.44;95989.44;5014286;28;20203;-88
2022/09/20 00:50:32;;;;;;;1.70;1.10;;;;;;;11.42;80.51;95999.13;5013470;28;20222;-87
2022/09/20 00:53:04;;;;;;;2.23;1.00;;;;;;;11.48;80.39;95999.44;5013509;28;20769;-88
2022/09/20 00:55:31;;;;;;;1.13;1.00;;;;;;;11.39;80.30;95991.72;5013593;28;20242;-87
2022/09/20 00:57:59;;;;;;;1.77;1.10;;;;;;;11.41;80.21;95997.53;5013772;28;20257;-87
2022/09/20 01:00:28;;;;;;;1.50;1.10;;;;;;;11.35;80.33;95992.28;5013595;28;20313;-87
2022/09/20 01:03:02;;;;;;;1.10;1.00;;;;;;;11.37;80.46;95990.28;5013549;28;20289;-87
2022/09/20 01:05:29;;;;;;;1.63;1.20;;;;;;;11.40;80.16;95985.59;4993411;28;20644;-87
2022/09/20 01:07:56;;;;;;;2.47;1.00;;;;;;;11.44;80.78;95988.66;4993430;28;20567;-87
2022/09/20 01:10:23;;;;;;;1.40;1.03;;;;;;;11.39;81.05;95994.31;4993768;28;20230;-87
2022/09/20 01:12:51;;;;;;;2.87;1.23;;;;;;;11.39;81.06;95988.34;4993724;28;20700;-87
2022/09/20 01:15:19;;;;;;;4.30;1.20;;;;;;;11.42;81.37;95985.44;4993840;28;20235;-87
2022/09/20 01:17:52;;;;;;;2.63;0.80;;;;;;;11.47;81.97;95992.66;4993998;28;20207;-87
2022/09/20 01:20:22;;;;;;;2.60;1.30;;;;;;;11.51;81.45;95986.19;4993160;28;20243;-87
2022/09/20 01:23:19;;;;;;;2.40;1.33;;;;;;;11.53;81.51;95984.25;5001686;28;20195;-87
2022/09/20 01:26:02;;;;;;;2.13;1.37;;;;;;;11.48;81.15;95981.38;5012843;28;20289;-87
2022/09/20 01:28:30;;;;;;;0.90;0.90;;;;;;;11.41;81.48;95964.00;5013639;28;20203;-87
2022/09/20 01:31:06;;;;;;;2.10;1.30;;;;;;;11.31;82.46;95963.44;5013071;28;20230;-87
2022/09/20 01:33:42;;;;;;;1.20;1.00;;;;;;;11.25;82.73;95974.44;5013194;28;20273;-87
2022/09/20 01:36:14;;;;;;;1.70;1.20;;;;;;;11.29;83.28;95977.47;5012358;28;20232;-87
2022/09/20 01:38:48;;;;;;;1.87;1.20;;;;;;;11.33;83.21;95973.59;5012916;28;20203;-86
2022/09/20 01:41:23;;;;;;;1.37;0.80;;;;;;;11.30;83.14;95967.00;5012684;28;20261;-88
2022/09/20 01:43:54;;;;;;;3.60;1.70;;;;;;;11.37;82.42;95967.09;5013058;28;20247;-87
2022/09/20 01:46:30;;;;;;;2.63;1.23;;;;;;;11.36;83.01;95970.66;5012777;28;20284;-87
2022/09/20 01:49:05;;;;;;;2.60;1.30;;;;;;;11.32;82.74;95965.06;5012566;28;20207;-87
2022/09/20 01:51:55;;;;;;;1.63;1.37;;;;;;;11.31;82.71;95963.44;5012146;28;20316;-87
2022/09/20 01:55:08;;;;;;;1.70;1.20;;;;;;;11.26;82.62;95962.34;5013049;28;20643;-88
2022/09/20 01:57:57;;;;;;;1.63;1.10;;;;;;;11.30;82.83;95964.41;5012288;28;20249;-88
2022/09/20 02:00:27;;;;;;;2.60;1.13;;;;;;;11.30;82.63;95959.25;5012202;28;20235;-89
2022/09/20 02:03:32;;;;;;;1.80;1.23;;;;;;;11.31;82.83;95953.13;5012286;28;20270;-87
2022/09/20 02:06:16;;;;;;;1.13;1.00;;;;;;;11.40;82.59;95964.19;4993467;28;20234;-87
2022/09/20 02:09:22;;;;;;;3.00;1.40;;;;;;;11.45;82.90;95961.09;4993330;28;20210;-89
2022/09/20 02:12:03;;;;;;;1.27;1.13;;;;;;;11.45;81.48;95961.09;4958087;28;20310;-89
2022/09/20 02:14:39;;;;;;;1.30;1.07;;;;;;;11.45;81.38;95959.31;4993868;28;20647;-87
2022/09/20 02:17:12;;;;;;;1.73;1.00;;;;;;;11.41;81.22;95952.88;4993273;28;20234;-88
2022/09/20 02:20:08;;;;;;;1.80;1.10;;;;;;;11.41;81.23;95951.13;4997742;28;20203;-86
2022/09/20 02:22:44;;;;;;;2.63;1.10;;;;;;;11.45;81.62;95961.09;5003694;28;20290;-87
2022/09/20 02:25:37;;;;;;;1.20;1.10;;;;;;;11.46;81.44;95948.03;5016848;28;20230;-87
2022/09/20 02:28:17;;;;;;;1.37;1.03;;;;;;;11.43;80.94;95959.47;5016938;28;20214;-88
2022/09/20 02:30:50;;;;;;;1.00;0.90;;;;;;;11.40;81.30;95953.88;5017135;28;20218;-89
2022/09/20 02:33:31;;;;;;;2.63;1.40;;;;;;;11.38;81.23;95954.03;5017461;28;20641;-88
2022/09/20 02:36:21;;;;;;;1.43;1.10;;;;;;;11.40;80.97;95961.59;5017141;28;20651;-89
2022/09/20 02:38:59;;;;;;;1.50;1.20;;;;;;;11.30;81.17;95959.25;5016952;28;20206;-87
2022/09/20 02:41:52;;;;;;;2.63;1.37;;;;;;;11.33;80.88;95955.53;5017136;28;20226;-89
2022/09/20 02:44:28;;;;;;;3.27;1.30;;;;;;;11.38;80.84;95968.69;5016872;28;20237;-89
2022/09/20 02:47:02;;;;;;;3.87;1.30;;;;;;;11.31;81.22;95958.28;5016708;28;20249;-89
2022/09/20 02:49:38;;;;;;;1.40;1.20;;;;;;;11.34;81.13;95957.16;5016121;28;20334;-87
2022/09/20 02:52:13;;;;;;;2.27;1.20;;;;;;;11.30;81.48;95963.63;5016097;28;20210;-87
2022/09/20 02:54:50;;;;;;;2.27;1.87;;;;;;;11.27;81.50;95963.94;5016857;28;20711;-87
2022/09/20 02:57:26;;;;;;;1.73;1.23;;;;;;;11.31;81.42;95955.72;5015717;28;20222;-89
2022/09/20 02:59:59;;;;;;;2.27;1.27;;;;;;;11.31;82.24;95966.03;5016522;28;20253;-87
2022/09/20 03:02:28;;;;;;;2.47;1.50;;;;;;;11.36;81.28;95965.50;5029332;23;20296;-80
2022/09/20 03:05:13;;;;;;;1.63;1.40;;;;;;;11.36;81.20;95955.19;5014353;28;20195;-82
2022/09/20 03:07:54;;;;;;;2.23;1.33;;;;;;;11.35;81.48;95964.69;5014810;28;20229;-82
2022/09/20 03:10:27;;;;;;;1.47;1.27;;;;;;;11.35;80.99;95962.09;5014525;28;20602;-82
2022/09/20 03:13:10;;;;;;;2.97;1.50;;;;;;;11.33;81.36;95968.44;5014480;28;20719;-82
2022/09/20 03:15:45;;;;;;;1.57;1.40;;;;;;;11.30;81.17;95967.00;5014130;28;20235;-82
2022/09/20 03:18:16;;;;;;;2.20;1.23;;;;;;;11.34;80.67;95960.53;5014231;28;20673;-82
2022/09/20 03:20:55;;;;;;;1.67;1.37;;;;;;;11.36;80.47;95962.91;5014557;28;20359;-83
2022/09/20 03:23:40;;;;;;;3.53;1.40;;;;;;;11.37;80.57;95960.16;5014622;28;20218;-82
2022/09/20 03:26:16;;;;;;;2.47;1.50;;;;;;;11.36;80.98;95955.97;5013958;28;20233;-82
2022/09/20 03:28:57;;;;;;;2.23;1.30;;;;;;;11.37;80.64;95956.78;5016426;28;20597;-82
2022/09/20 03:31:34;;;;;;;1.50;1.30;;;;;;;11.38;81.07;95960.97;5014435;28;20261;-82
2022/09/20 03:34:09;;;;;;;4.27;1.53;;;;;;;11.37;80.57;95964.50;5014474;28;20238;-83
2022/09/20 03:36:54;;;;;;;2.00;1.77;;;;;;;11.33;80.92;95966.66;5014161;28;20226;-82
2022/09/20 03:39:36;;;;;;;2.33;1.40;;;;;;;11.28;81.17;95962.97;5014002;28;20268;-82
2022/09/20 03:42:13;;;;;;;4.30;1.33;;;;;;;11.28;81.32;95968.94;5013595;28;20227;-82
2022/09/20 03:45:05;;;;;;;1.80;1.33;;;;;;;11.23;81.20;95973.00;5014019;28;20577;-82
2022/09/20 03:48:00;;;;;;;3.90;1.60;;;;;;;11.21;81.69;95974.94;5013582;28;20353;-82
2022/09/20 03:50:46;;;;;;;1.57;1.47;;;;;;;11.19;81.39;95964.78;5013477;28;20206;-82
2022/09/20 03:53:31;;;;;;;3.23;1.40;;;;;;;11.17;81.55;95964.16;5013247;28;20223;-82
2022/09/20 03:56:13;;;;;;;1.77;1.40;;;;;;;11.21;81.11;95962.03;5013213;28;20289;-83
2022/09/20 03:58:54;;;;;;;3.63;1.57;;;;;;;11.16;81.24;95956.63;5013914;28;20621;-82
2022/09/20 04:01:36;;;;;;;2.20;1.30;;;;;;;11.16;81.25;95961.78;5013429;28;20263;-80
2022/09/20 04:04:13;;;;;;;1.73;1.50;;;;;;;11.19;81.21;95967.38;5013501;28;20619;-80
2022/09/20 04:06:52;;;;;;;2.33;1.70;;;;;;;11.13;81.52;95969.84;5013120;28;20739;-81
2022/09/20 04:10:06;;;;;;;2.37;1.90;;;;;;;11.15;81.67;95967.91;5013896;28;20199;-82
2022/09/20 04:12:49;;;;;;;2.33;1.67;;;;;;;11.17;81.47;95973.66;5013901;28;20226;-82
2022/09/20 04:15:36;;;;;;;1.57;1.33;;;;;;;11.14;81.38;95974.03;5013340;28;20230;-82
2022/09/20 04:18:11;;;;;;;2.27;1.60;;;;;;;11.16;81.36;95977.25;5013632;28;20281;-82
2022/09/20 04:20:45;;;;;;;1.97;1.50;;;;;;;11.11;80.99;95979.53;5013441;28;20214;-82
2022/09/20 04:23:24;;;;;;;3.33;1.80;;;;;;;11.14;81.10;95977.41;5012925;28;20223;-82
2022/09/20 04:25:51;;;;;;;2.30;1.43;;;;;;;11.15;81.45;95976.44;5012836;28;20235;-82
2022/09/20 04:28:24;;;;;;;3.87;1.60;;;;;;;11.09;81.38;95979.69;5012942;28;20198;-82
2022/09/20 04:30:56;;;;;;;3.57;1.60;;;;;;;11.08;80.69;95973.72;5012932;28;20284;-82
2022/09/20 04:33:27;;;;;;;3.13;1.60;;;;;;;11.05;80.92;95981.00;5013328;28;20269;-80
2022/09/20 04:39:00;;;;;;;1.63;1.53;;;;;;;11.03;80.34;95980.34;5012951;28;20338;-81
2022/09/20 04:41:57;;;;;;;2.43;1.60;;;;;;;11.04;80.41;95979.38;5012595;28;20202;-81
2022/09/20 04:47:48;;;;;;;3.43;1.63;;;;;;;11.02;80.35;95984.72;5129309;27;20577;-80
2022/09/20 04:50:37;;;;;;;3.10;1.67;;;;;;;11.00;80.88;95988.41;5130017;27;20570;-79
2022/09/20 04:53:44;;;;;;;2.90;1.63;;;;;;;10.97;80.26;95992.13;5129755;28;20211;-80
2022/09/20 04:56:20;;;;;;;2.43;1.60;;;;;;;11.00;80.18;95989.22;5129738;27;20222;-80
2022/09/20 04:58:49;;;;;;;4.63;1.57;;;;;;;10.98;80.11;95990.34;5130120;27;20199;-81
2022/09/20 05:02:15;;;;;;;2.40;1.53;;;;;;;11.00;80.01;95993.56;5129823;27;20226;-81
2022/09/20 05:05:14;;;;;;;3.20;1.73;;;;;;;11.04;80.01;95994.84;5130104;27;20198;-79
2022/09/20 05:08:15;;;;;;;2.60;1.80;;;;;;;11.03;79.60;95988.88;5129117;27;20375;-81
2022/09/20 05:11:22;;;;;;;4.60;2.10;;;;;;;11.02;79.97;95991.63;5129515;27;20299;-80
2022/09/20 05:14:04;;;;;;;5.43;2.10;;;;;;;11.02;79.94;95991.63;5129340;27;20215;-80
2022/09/20 05:16:45;;;;;;;3.87;1.90;;;;;;;10.98;79.67;95998.09;5129247;27;20275;-80
2022/09/20 05:19:25;;;;;;;7.43;2.70;;;;;;;10.97;81.29;95996.47;5129521;27;20199;-80
2022/09/20 05:22:26;;;;;;;5.83;2.13;;;;;;;10.98;82.52;95995.50;5129398;27;20309;-80
2022/09/20 05:25:14;;;;;;;5.33;2.43;;;;;;;11.01;80.65;96005.47;5129008;27;20199;-80
2022/09/20 05:27:46;;;;;;;1.97;1.60;;;;;;;11.07;81.06;96009.97;5129352;27;20207;-79
2022/09/20 05:30:21;;;;;;;12.83;9.70;;;;;;;11.08;79.91;96004.66;5129209;27;20639;-80
2022/09/20 05:32:57;;;;;;;8.23;5.60;;;;;;;11.07;79.52;96000.47;5129390;27;20275;-80
2022/09/20 05:35:29;;;;;;;2.47;2.10;;;;;;;11.02;79.66;96007.91;5129007;27;20226;-81
2022/09/20 05:38:05;;;;;;;3.57;1.90;;;;;;;10.99;79.44;95999.69;5129418;27;20202;-80
2022/09/20 05:40:46;;;;;;;3.87;1.83;;;;;;;11.01;79.82;96008.06;5129053;27;20199;-81
2022/09/20 05:43:19;;;;;;;2.93;1.77;;;;;;;10.99;79.88;96005.66;5129466;27;20214;-79
2022/09/20 05:46:03;;;;;;;3.80;1.83;;;;;;;11.01;80.25;96005.47;5128928;27;20231;-83
2022/09/20 05:48:40;;;;;;;4.50;2.20;;;;;;;11.04;79.97;96012.88;5129390;27;20291;-79
2022/09/20 05:51:17;;;;;;;2.50;2.10;;;;;;;11.00;79.89;96009.03;5129132;27;20199;-82
2022/09/20 05:54:42;;;;;;;3.70;2.20;;;;;;;11.00;80.00;96017.56;5129012;27;20226;-82
2022/09/20 05:57:20;;;;;;;3.17;2.00;;;;;;;11.04;80.20;96015.47;5123292;27;20231;-82
2022/09/20 05:59:59;;;;;;;4.50;2.70;;;;;;;11.06;80.39;96031.56;5115522;28;20203;-80
2022/09/20 06:02:38;;;;;;;5.63;2.83;;;;;;;11.05;79.69;96033.34;5114958;28;20577;-79
2022/09/20 06:05:13;;;;;;;4.57;2.43;;;;;;;11.06;79.94;96031.56;5114336;27;20238;-80
2022/09/20 06:08:10;;;;;;;2.97;2.43;;;;;;;11.10;79.92;96032.84;5114835;28;20199;-80
2022/09/20 06:10:57;;;;;;;4.13;2.83;;;;;;;11.08;79.93;96038.16;5115481;27;20207;-80
2022/09/20 06:13:45;;;;;;;3.90;2.27;;;;;;;11.12;79.48;96036.03;5114903;28;20233;-80
2022/09/20 06:16:21;;;;;;;7.93;2.90;;;;;;;11.15;79.52;96033.13;5114374;27;20276;-81
2022/09/20 06:18:59;;;;;;;3.57;2.40;;;;;;;11.20;79.55;96035.19;5115238;28;21012;-80
2022/09/20 06:21:35;;;;;;;3.60;2.27;;;;;;;11.21;79.41;96042.75;5114913;28;20214;-80
2022/09/20 06:24:02;;;;;;;18.17;13.43;;;;;;;11.21;79.86;96039.38;5114973;28;20200;-80
2022/09/20 06:26:35;;;;;;;7.70;5.67;;;;;;;11.16;79.73;96039.09;5114083;28;20793;-80
2022/09/20 06:29:06;;;;;;;5.17;2.90;;;;;;;11.19;79.61;96039.53;5114422;28;20204;-81
2022/09/20 06:31:32;;;;;;;4.63;2.20;;;;;;;11.21;79.75;96044.53;5114815;28;20260;-80
2022/09/20 06:34:05;;;;;;;4.70;2.40;;;;;;;11.28;79.35;96048.03;5114900;28;20556;-80
2022/09/20 06:42:12;;;;;;;2.40;1.93;;;;;;;11.39;79.44;96043.28;5114219;28;20272;-81
2022/09/20 06:44:40;;;;;;;5.97;2.67;;;;;;;11.40;79.27;96046.69;5118147;28;20226;-79
2022/09/20 06:47:07;;;;;;;4.03;2.30;;;;;;;11.43;78.52;96041.19;5118627;28;20234;-80
2022/09/20 06:49:34;;;;;;;5.73;2.40;;;;;;;11.47;78.80;96047.63;5119496;28;20203;-80
2022/09/20 06:52:01;;;;;;;3.53;2.10;;;;;;;11.50;78.46;96049.84;5119155;28;20241;-79
2022/09/20 06:54:28;;;;;;;6.93;2.50;;;;;;;11.51;78.54;96054.03;5118027;28;20713;-80
2022/09/20 06:56:55;;;;;;;4.13;2.60;;;;;;;11.46;80.02;96053.75;5113795;28;20227;-80
2022/09/20 06:59:23;;;;;;;5.53;2.17;;;;;;;11.51;78.68;96056.63;5117655;28;20317;-81
2022/09/20 07:01:50;;;;;;;3.13;2.20;;;;;;;11.47;78.11;96052.78;5118332;27;20227;-80
2022/09/20 07:04:17;;;;;;;9.13;2.97;;;;;;;11.44;78.54;96063.41;5119111;28;20192;-81
2022/09/20 07:06:43;;;;;;;6.67;2.47;;;;;;;11.50;79.11;96046.47;5115487;27;20231;-80
2022/09/20 07:09:11;;;;;;;3.83;2.30;;;;;;;11.54;79.02;96047.75;5115196;28;20257;-79
2022/09/20 07:11:37;;;;;;;2.87;2.50;;;;;;;11.66;78.57;96056.69;5116249;28;20524;-81
2022/09/20 07:14:06;;;;;;;3.87;2.50;;;;;;;11.70;78.29;96051.03;5116917;28;20203;-79
2022/09/20 07:16:35;;;;;;;3.73;2.20;;;;;;;11.66;77.25;96057.50;5116987;27;20323;-81
2022/09/20 07:19:02;;;;;;;6.67;2.80;;;;;;;11.66;77.38;96054.91;5116075;28;20207;-80
2022/09/20 07:21:29;;;;;;;8.37;2.97;;;;;;;11.71;77.24;96060.38;5116159;28;20208;-81
2022/09/20 07:23:56;;;;;;;3.90;2.63;;;;;;;11.70;76.75;96060.53;5115514;28;20200;-80
2022/09/20 07:26:25;;;;;;;8.70;2.60;;;;;;;11.80;76.40;96057.75;5113822;28;20227;-82
2022/09/20 07:28:52;;;;;;;3.23;2.20;;;;;;;11.77;76.92;96064.03;5116200;27;20658;-81
2022/09/20 07:31:19;;;;;;;6.40;2.53;;;;;;;11.73;76.73;96062.78;5115092;28;20683;-80
2022/09/20 07:33:47;;;;;;;15.90;7.53;;;;;;;11.72;77.09;96068.91;5114756;28;20215;-80
2022/09/20 07:36:14;;;;;;;25.97;16.83;;;;;;;11.74;77.71;96074.66;5113577;28;20747;-81
2022/09/20 07:38:40;;;;;;;6.87;3.57;;;;;;;11.71;78.06;96075.03;5113540;28;20391;-81
2022/09/20 07:41:08;;;;;;;8.17;3.10;;;;;;;11.69;78.40;96082.13;5112831;28;20199;-81
2022/09/20 07:43:35;;;;;;;3.43;2.40;;;;;;;11.66;78.75;96083.28;5114486;28;20219;-81
2022/09/20 07:46:02;;;;;;;4.93;2.13;;;;;;;11.65;80.38;96078.28;5114838;28;20237;-79
2022/09/20 07:48:31;;;;;;;3.70;2.40;;;;;;;11.59;82.35;96081.53;5114021;28;20199;-80
2022/09/20 07:51:02;;;;;;;4.33;2.03;;;;;;;11.64;82.51;96087.00;5113610;27;20203;-80
2022/09/20 07:53:29;;;;;;;6.40;2.20;;;;;;;11.67;82.88;96082.31;5113420;28;20219;-79
2022/09/20 07:55:57;;;;;;;6.70;2.63;;;;;;;11.69;82.97;96089.88;5113187;28;20280;-79
2022/09/20 07:58:24;;;;;;;4.37;2.67;;;;;;;11.67;83.30;96092.63;5114186;28;20624;-79
2022/09/20 08:00:52;;;;;;;4.97;2.60;;;;;;;11.71;84.28;96086.16;5114152;28;20202;-80
2022/09/20 08:03:18;;;;;;;4.07;2.83;;;;;;;11.62;84.01;96087.16;5112986;28;20211;-80
2022/09/20 08:05:45;;;;;;;6.90;2.70;;;;;;;11.60;84.43;96090.88;5113137;27;20223;-78
2022/09/20 08:08:13;;;;;;;5.27;2.40;;;;;;;11.56;86.18;96082.69;5114467;28;20286;-80
2022/09/20 08:10:40;;;;;;;5.50;2.70;;;;;;;11.59;86.20;96081.53;5113416;28;20211;-79
2022/09/20 08:13:07;;;;;;;4.03;2.33;;;;;;;11.59;86.58;96082.34;5114272;28;20314;-81
2022/09/20 08:15:33;;;;;;;3.13;2.33;;;;;;;11.62;86.91;96091.53;5113950;27;20219;-79
2022/09/20 08:18:00;;;;;;;4.87;2.90;;;;;;;11.61;87.16;96084.75;5114225;28;20628;-79
2022/09/20 08:20:27;;;;;;;4.17;2.77;;;;;;;11.70;85.79;96084.56;5113792;28;20209;-80
2022/09/20 08:22:54;;;;;;;6.53;3.30;;;;;;;11.73;86.64;96083.41;5114199;28;20281;-80
2022/09/20 08:25:22;;;;;;;3.17;2.83;;;;;;;11.73;87.45;96084.22;5113596;28;20227;-80
2022/09/20 08:27:53;;;;;;;4.57;2.70;;;;;;;11.86;85.85;96088.81;5114682;28;20215;-80
2022/09/20 08:30:19;;;;;;;10.23;3.40;;;;;;;11.88;86.65;96092.03;5113806;28;20737;-79
2022/09/20 08:32:45;;;;;;;5.53;3.10;;;;;;;11.99;85.50;96093.41;5114597;28;20219;-80
2022/09/20 08:35:13;;;;;;;7.37;3.50;;;;;;;12.07;86.04;96089.00;5113972;28;20282;-80
2022/09/20 08:37:42;;;;;;;5.23;3.40;;;;;;;12.25;85.40;96093.84;5114950;28;20206;-80
2022/09/20 08:40:10;;;;;;;6.97;3.70;;;;;;;12.28;86.89;96093.50;5114368;28;20599;-79
2022/09/20 08:42:43;;;;;;;5.93;3.50;;;;;;;12.20;87.45;96091.00;5114730;28;20625;-81
2022/09/20 08:45:15;;;;;;;7.27;3.63;;;;;;;12.06;87.35;96092.56;5114714;28;20326;-80
2022/09/20 08:47:48;;;;;;;9.13;3.73;;;;;;;12.03;86.15;96085.16;5114159;28;20223;-79
2022/09/20 08:50:15;;;;;;;7.53;4.40;;;;;;;12.13;86.01;96086.69;5113659;28;20200;-79
2022/09/20 08:52:47;;;;;;;6.70;3.80;;;;;;;12.08;86.18;96089.81;5113284;28;20280;-80
2022/09/20 08:55:16;;;;;;;5.47;4.20;;;;;;;12.13;85.66;96092.66;5113355;28;20601;-80
2022/09/20 08:57:47;;;;;;;7.10;3.90;;;;;;;12.01;85.60;96091.47;5113724;28;20651;-80
2022/09/20 09:00:17;;;;;;;6.70;3.53;;;;;;;12.00;85.25;96095.00;5114304;28;20286;-80
2022/09/20 09:02:44;;;;;;;5.50;3.50;;;;;;;12.04;84.82;96097.09;5114458;28;20287;-79
2022/09/20 09:05:30;;;;;;;8.90;3.40;;;;;;;12.01;84.84;96097.44;5112616;27;20223;-80
2022/09/20 09:07:59;;;;;;;5.97;3.20;;;;;;;11.96;84.77;96094.56;5112903;28;20287;-80
2022/09/20 09:10:35;;;;;;;7.80;3.50;;;;;;;11.97;84.72;96103.91;5111848;28;20199;-80
2022/09/20 09:13:09;;;;;;;6.97;3.77;;;;;;;12.04;85.23;96106.59;5099852;22;20225;-88
2022/09/20 09:15:38;;;;;;;6.43;4.07;;;;;;;12.10;85.43;96096.41;5051498;28;20688;-89
2022/09/20 09:18:11;;;;;;;10.93;3.97;;;;;;;12.12;86.29;96098.00;5051881;28;20215;-88
2022/09/20 09:20:46;;;;;;;7.63;3.90;;;;;;;12.27;85.65;96104.00;5051799;28;20205;-88
2022/09/20 09:23:24;;;;;;;6.67;3.90;;;;;;;12.47;85.81;96099.97;5051722;28;20692;-88
2022/09/20 09:25:52;;;;;;;7.63;5.57;;;;;;;12.50;83.97;96098.81;5051427;28;20225;-88
2022/09/20 09:28:23;;;;;;;6.10;4.37;;;;;;;12.55;84.37;96093.91;5051606;28;20225;-88
2022/09/20 09:30:53;;;;;;;8.07;3.87;;;;;;;12.64;83.35;96090.28;5052357;28;20209;-89
2022/09/20 09:33:26;;;;;;;6.53;3.60;;;;;;;13.37;79.83;96090.28;5055597;28;20650;-88
2022/09/20 09:35:56;;;;;;;4.77;2.90;;;;;;;13.68;75.12;96082.25;5057451;28;20253;-88
2022/09/20 09:38:24;;;;;;;3.50;3.20;;;;;;;13.40;75.42;96084.75;5057611;28;20220;-89
2022/09/20 09:40:53;;;;;;;4.80;3.50;;;;;;;13.21;76.32;96087.91;5056605;28;20201;-86
2022/09/20 09:43:25;;;;;;;5.40;2.90;;;;;;;13.08;79.86;96090.31;5056416;28;20221;-87
2022/09/20 09:45:53;;;;;;;3.63;2.93;;;;;;;12.95;81.39;96087.53;5053832;28;20588;-87
2022/09/20 09:48:23;;;;;;;3.27;2.67;;;;;;;12.97;79.52;96088.16;5053704;28;20221;-87
2022/09/20 09:50:52;;;;;;;6.33;3.33;;;;;;;12.95;80.04;96080.56;5054133;28;20201;-87
2022/09/20 09:53:22;;;;;;;7.33;3.20;;;;;;;12.92;76.95;96085.28;5053775;28;20221;-88
2022/09/20 09:56:04;;;;;;;4.00;2.40;;;;;;;13.01;75.15;96084.22;5052778;28;20735;-87
2022/09/20 09:58:45;;;;;;;3.93;2.30;;;;;;;13.04;75.02;96082.09;5053642;28;20194;-87
2022/09/20 10:01:21;;;;;;;4.03;2.30;;;;;;;13.14;74.38;96092.94;5053429;28;20263;-88
2022/09/20 10:03:58;;;;;;;7.20;2.70;;;;;;;13.23;73.81;96085.94;5053405;28;20233;-88
2022/09/20 10:06:30;;;;;;;4.63;2.30;;;;;;;13.27;73.43;96089.78;5052974;28;20290;-87
2022/09/20 10:09:29;;;;;;;7.53;5.30;;;;;;;13.23;73.76;96078.19;5053583;28;20824;-87
2022/09/20 10:12:13;;;;;;;9.67;3.20;;;;;;;13.23;72.61;96085.16;5050603;28;20224;-88
2022/09/20 10:14:56;;;;;;;4.90;2.23;;;;;;;13.06;71.85;96082.72;5053304;28;20266;-87
2022/09/20 10:17:36;;;;;;;3.83;2.37;;;;;;;13.02;73.25;96083.25;5053300;28;20216;-88
2022/09/20 10:20:21;;;;;;;4.37;2.53;;;;;;;13.05;73.32;96075.94;5053489;28;20201;-89
2022/09/20 10:23:00;;;;;;;3.53;2.17;;;;;;;13.08;72.79;96072.97;5053261;28;20719;-87
2022/09/20 10:25:38;;;;;;;5.17;2.27;;;;;;;13.07;71.41;96083.53;5053124;28;20655;-87
2022/09/20 10:28:19;;;;;;;3.10;1.90;;;;;;;13.04;69.52;96086.47;5053466;28;20217;-87
2022/09/20 10:30:57;;;;;;;2.80;1.83;;;;;;;13.12;70.19;96081.19;5053414;28;20209;-87
2022/09/20 10:33:31;;;;;;;16.40;12.03;;;;;;;13.18;70.91;96083.09;5053926;28;20693;-89
2022/09/20 10:36:15;;;;;;;6.37;4.90;;;;;;;13.21;70.19;96087.91;5053367;28;20285;-87
2022/09/20 10:38:50;;;;;;;3.17;2.27;;;;;;;13.21;69.08;96087.91;5053649;28;20198;-87
2022/09/20 10:44:41;;;;;;;3.97;1.90;;;;;;;12.98;68.05;96076.84;5053338;28;20263;-89
2022/09/20 10:47:15;;;;;;;2.93;2.00;;;;;;;12.98;69.19;96082.00;5053009;28;20240;-87
2022/09/20 10:49:47;;;;;;;5.23;1.93;;;;;;;12.98;69.42;96077.63;5053140;28;20696;-87
2022/09/20 10:52:30;;;;;;;4.13;2.10;;;;;;;12.95;70.46;96082.34;5053405;28;20285;-87
2022/09/20 10:55:07;;;;;;;3.20;1.80;;;;;;;13.03;69.22;96085.66;5052614;28;20205;-88
2022/09/20 10:57:52;;;;;;;4.00;2.00;;;;;;;13.06;69.08;96085.31;5053634;28;20213;-87
2022/09/20 11:00:21;;;;;;;3.43;2.10;;;;;;;13.03;67.90;96087.44;5053151;28;20201;-88
2022/09/20 11:03:03;;;;;;;2.87;1.80;;;;;;;12.94;67.87;96078.97;5053788;28;20295;-88
2022/09/20 11:05:37;;;;;;;4.93;1.90;;;;;;;12.98;66.08;96077.63;5033525;28;20226;-87
2022/09/20 11:08:11;;;;;;;6.30;2.07;;;;;;;13.19;65.72;96083.91;5033888;28;20313;-89
2022/09/20 11:10:45;;;;;;;4.60;2.03;;;;;;;13.49;64.27;96080.25;5034168;28;20301;-87
2022/09/20 11:13:22;;;;;;;6.57;2.10;;;;;;;13.77;63.92;96072.59;5033645;28;20280;-87
2022/09/20 11:15:58;;;;;;;4.10;2.03;;;;;;;14.02;61.72;96078.22;5033262;28;20593;-88
2022/09/20 11:18:32;;;;;;;6.07;1.77;;;;;;;14.23;62.25;96078.22;5034077;28;20206;-87
2022/09/20 11:21:06;;;;;;;3.93;1.90;;;;;;;14.24;61.48;96071.25;5033932;28;20212;-88
2022/09/20 11:23:44;;;;;;;4.03;2.33;;;;;;;14.32;60.76;96082.25;5048418;28;20217;-87
2022/09/20 11:26:17;;;;;;;4.00;1.97;;;;;;;14.29;60.27;96079.25;5053489;28;20290;-87
2022/09/20 11:28:48;;;;;;;4.50;1.67;;;;;;;14.29;60.65;96076.66;5053577;28;20784;-88
2022/09/20 11:31:22;;;;;;;3.63;1.70;;;;;;;14.33;62.01;96077.88;5053305;28;20292;-87
2022/09/20 11:33:56;;;;;;;6.30;1.45;;;;;;;14.27;56.82;96087.19;5053797;28;20279;-87
2022/09/20 11:36:28;;;;;;;14.70;12.17;;;;;;;14.36;58.53;96078.31;5052846;28;20239;-87
2022/09/20 11:39:00;;;;;;;8.33;6.20;;;;;;;14.39;58.20;96077.16;5053773;28;20201;-87
2022/09/20 11:41:28;;;;;;;3.00;1.60;;;;;;;14.32;57.31;96076.28;5053700;28;20209;-88
2022/09/20 11:43:59;;;;;;;3.20;1.73;;;;;;;14.29;56.25;96080.03;5053072;28;20363;-88
2022/09/20 11:46:31;;;;;;;3.43;1.60;;;;;;;14.12;56.80;96076.13;5052609;28;20233;-88
2022/09/20 11:49:02;;;;;;;3.07;1.27;;;;;;;13.99;56.06;96076.00;5053575;28;20229;-89
2022/09/20 11:51:47;;;;;;;6.22;1.90;;;;;;;14.04;56.07;96078.84;5053866;28;20210;-89
2022/09/20 11:54:53;;;;;;;4.63;1.50;;;;;;;14.12;56.84;96065.75;5053902;28;20205;-88
2022/09/20 11:57:20;;;;;;;2.80;1.50;;;;;;;14.21;56.54;96072.41;5053701;28;20240;-87
2022/09/20 11:59:51;;;;;;;2.40;1.27;;;;;;;14.38;57.07;96070.34;5053486;28;20579;-87
2022/09/20 12:02:23;;;;;;;4.60;1.63;;;;;;;14.43;56.43;96061.03;5053134;28;20596;-88
2022/09/20 12:04:52;;;;;;;1.63;1.35;;;;;;;14.56;58.50;96067.31;5052440;28;20677;-88
2022/09/20 12:07:22;;;;;;;7.25;1.80;;;;;;;14.68;58.31;96065.81;5053367;28;20198;-87
2022/09/20 12:09:55;;;;;;;5.43;1.50;;;;;;;14.70;56.51;96063.81;5053301;28;20205;-88
2022/09/20 12:12:32;;;;;;;3.17;1.27;;;;;;;14.61;56.50;96064.97;5054142;28;20244;-87
2022/09/20 12:15:01;;;;;;;5.15;1.75;;;;;;;14.64;55.72;96064.56;5053680;28;20196;-88
2022/09/20 12:18:20;;;;;;;3.58;1.73;;;;;;;14.61;56.21;96067.56;5054072;28;20204;-88
2022/09/20 12:21:04;;;;;;;3.10;1.70;;;;;;;14.69;56.21;96057.03;5053354;28;20197;-88
2022/09/20 12:24:10;;;;;;;2.10;1.40;;;;;;;14.81;55.83;96055.53;5052888;28;20224;-88
2022/09/20 12:26:42;;;;;;;9.95;8.00;;;;;;;14.93;54.74;96050.59;5053126;28;20360;-88
2022/09/20 12:29:51;;;;;;;4.57;3.13;;;;;;;14.75;52.97;96046.72;5054328;28;20252;-88